Indianapolis, Indiana
Traffic Map
Current Weather Conditions
Indianapolis, Indiana
Clear
Clear
46°
Feels Like: 41°
Wind Chill: 41° Ceiling: Unl
Heat Index: 46° Visibility: 10mi
Dew Point: 39° Wind: 10mph
Humidity: 76% Direction: 230° (SW)
Pressure: 30.13in Gusts: 0mph
Raw Report DataKIND 230654Z 23009KT 10SM CLR 08/04 A3013 RMK AO2 SLP203 T00780039
Traffic Incident Summary
Active as of:
Severity:
Category:
InformationThere was an issue retrieving the traffic information for this location. Please try a different location or try again shortly.
Advertisements